sensor_id;sensor_type;location;lat;lon;timestamp;P1;durP1;ratioP1;P2;durP2;ratioP2
82417;SDS011;72059;53.734;10.260;2023-12-14T00:01:55;8.58;;;3.60;;
82417;SDS011;72059;53.734;10.260;2023-12-14T00:04:22;9.45;;;3.25;;
82417;SDS011;72059;53.734;10.260;2023-12-14T00:06:50;8.75;;;3.08;;
82417;SDS011;72059;53.734;10.260;2023-12-14T00:09:17;6.08;;;2.77;;
82417;SDS011;72059;53.734;10.260;2023-12-14T00:11:45;6.62;;;2.60;;
82417;SDS011;72059;53.734;10.260;2023-12-14T00:14:12;7.15;;;2.50;;
82417;SDS011;72059;53.734;10.260;2023-12-14T00:16:39;6.03;;;2.75;;
82417;SDS011;72059;53.734;10.260;2023-12-14T00:19:07;12.30;;;2.90;;
82417;SDS011;72059;53.734;10.260;2023-12-14T00:21:34;4.85;;;2.50;;
82417;SDS011;72059;53.734;10.260;2023-12-14T00:24:02;5.45;;;2.30;;
82417;SDS011;72059;53.734;10.260;2023-12-14T00:26:29;8.33;;;3.25;;
82417;SDS011;72059;53.734;10.260;2023-12-14T00:28:57;7.97;;;2.67;;
82417;SDS011;72059;53.734;10.260;2023-12-14T00:31:24;8.25;;;2.40;;
82417;SDS011;72059;53.734;10.260;2023-12-14T00:33:51;5.53;;;2.27;;
82417;SDS011;72059;53.734;10.260;2023-12-14T00:36:19;5.87;;;2.63;;
82417;SDS011;72059;53.734;10.260;2023-12-14T00:38:46;10.58;;;2.83;;
82417;SDS011;72059;53.734;10.260;2023-12-14T00:41:14;5.40;;;2.70;;
82417;SDS011;72059;53.734;10.260;2023-12-14T00:43:41;11.40;;;2.52;;
82417;SDS011;72059;53.734;10.260;2023-12-14T00:46:08;6.70;;;2.30;;
82417;SDS011;72059;53.734;10.260;2023-12-14T00:48:36;8.18;;;2.77;;
82417;SDS011;72059;53.734;10.260;2023-12-14T00:51:04;4.67;;;2.72;;
82417;SDS011;72059;53.734;10.260;2023-12-14T00:53:31;4.85;;;2.27;;
82417;SDS011;72059;53.734;10.260;2023-12-14T00:55:59;6.95;;;2.47;;
82417;SDS011;72059;53.734;10.260;2023-12-14T00:58:26;11.93;;;2.42;;
82417;SDS011;72059;53.734;10.260;2023-12-14T01:00:54;6.92;;;2.47;;
82417;SDS011;72059;53.734;10.260;2023-12-14T01:03:21;4.30;;;1.77;;
82417;SDS011;72059;53.734;10.260;2023-12-14T01:05:48;5.90;;;2.80;;
82417;SDS011;72059;53.734;10.260;2023-12-14T01:08:16;7.30;;;2.67;;
82417;SDS011;72059;53.734;10.260;2023-12-14T01:10:43;11.60;;;2.83;;
82417;SDS011;72059;53.734;10.260;2023-12-14T01:13:11;6.58;;;2.65;;
82417;SDS011;72059;53.734;10.260;2023-12-14T01:15:38;7.03;;;2.50;;
82417;SDS011;72059;53.734;10.260;2023-12-14T01:18:06;4.12;;;2.25;;
82417;SDS011;72059;53.734;10.260;2023-12-14T01:20:33;4.75;;;2.65;;
82417;SDS011;72059;53.734;10.260;2023-12-14T01:23:00;8.40;;;2.62;;
82417;SDS011;72059;53.734;10.260;2023-12-14T01:25:28;8.78;;;3.25;;
82417;SDS011;72059;53.734;10.260;2023-12-14T01:27:55;7.83;;;2.75;;
82417;SDS011;72059;53.734;10.260;2023-12-14T01:30:23;9.80;;;2.77;;
82417;SDS011;72059;53.734;10.260;2023-12-14T01:32:50;9.95;;;2.83;;
82417;SDS011;72059;53.734;10.260;2023-12-14T01:35:17;6.97;;;2.98;;
82417;SDS011;72059;53.734;10.260;2023-12-14T01:37:45;7.67;;;2.50;;
82417;SDS011;72059;53.734;10.260;2023-12-14T01:40:12;8.55;;;2.90;;
82417;SDS011;72059;53.734;10.260;2023-12-14T01:42:40;7.80;;;2.90;;
82417;SDS011;72059;53.734;10.260;2023-12-14T01:45:07;9.15;;;3.05;;
82417;SDS011;72059;53.734;10.260;2023-12-14T01:47:35;9.35;;;3.37;;
82417;SDS011;72059;53.734;10.260;2023-12-14T01:50:02;13.08;;;3.35;;
82417;SDS011;72059;53.734;10.260;2023-12-14T01:52:30;8.65;;;2.70;;
82417;SDS011;72059;53.734;10.260;2023-12-14T01:54:57;4.72;;;2.45;;
82417;SDS011;72059;53.734;10.260;2023-12-14T01:57:25;12.78;;;2.70;;
82417;SDS011;72059;53.734;10.260;2023-12-14T01:59:52;4.92;;;2.55;;
82417;SDS011;72059;53.734;10.260;2023-12-14T02:02:20;7.87;;;3.22;;
82417;SDS011;72059;53.734;10.260;2023-12-14T02:04:47;7.78;;;3.00;;
82417;SDS011;72059;53.734;10.260;2023-12-14T02:07:14;11.97;;;2.87;;
82417;SDS011;72059;53.734;10.260;2023-12-14T02:09:42;6.95;;;2.83;;
82417;SDS011;72059;53.734;10.260;2023-12-14T02:12:09;6.05;;;2.50;;
82417;SDS011;72059;53.734;10.260;2023-12-14T02:14:37;5.95;;;2.35;;
82417;SDS011;72059;53.734;10.260;2023-12-14T02:17:04;14.25;;;3.70;;
82417;SDS011;72059;53.734;10.260;2023-12-14T02:19:31;7.50;;;3.02;;
82417;SDS011;72059;53.734;10.260;2023-12-14T02:21:59;11.38;;;3.25;;
82417;SDS011;72059;53.734;10.260;2023-12-14T02:24:26;11.80;;;3.00;;
82417;SDS011;72059;53.734;10.260;2023-12-14T02:26:54;11.80;;;3.52;;
82417;SDS011;72059;53.734;10.260;2023-12-14T02:29:22;8.15;;;3.40;;
82417;SDS011;72059;53.734;10.260;2023-12-14T02:31:49;5.75;;;2.90;;
82417;SDS011;72059;53.734;10.260;2023-12-14T02:34:17;10.05;;;3.58;;
82417;SDS011;72059;53.734;10.260;2023-12-14T02:36:46;9.70;;;4.08;;
82417;SDS011;72059;53.734;10.260;2023-12-14T02:39:13;12.80;;;4.50;;
82417;SDS011;72059;53.734;10.260;2023-12-14T02:41:40;12.13;;;4.03;;
82417;SDS011;72059;53.734;10.260;2023-12-14T02:44:08;11.73;;;3.80;;
82417;SDS011;72059;53.734;10.260;2023-12-14T02:46:35;8.60;;;3.85;;
82417;SDS011;72059;53.734;10.260;2023-12-14T02:49:03;8.98;;;3.58;;
82417;SDS011;72059;53.734;10.260;2023-12-14T02:51:30;11.88;;;3.33;;
82417;SDS011;72059;53.734;10.260;2023-12-14T02:53:58;5.92;;;2.83;;
82417;SDS011;72059;53.734;10.260;2023-12-14T02:56:25;12.63;;;3.90;;
82417;SDS011;72059;53.734;10.260;2023-12-14T02:58:52;12.55;;;3.80;;
82417;SDS011;72059;53.734;10.260;2023-12-14T03:01:20;8.80;;;4.00;;
82417;SDS011;72059;53.734;10.260;2023-12-14T03:03:47;10.88;;;3.65;;
82417;SDS011;72059;53.734;10.260;2023-12-14T03:06:15;6.75;;;3.02;;
82417;SDS011;72059;53.734;10.260;2023-12-14T03:08:42;9.33;;;3.62;;
82417;SDS011;72059;53.734;10.260;2023-12-14T03:11:10;10.70;;;3.80;;
82417;SDS011;72059;53.734;10.260;2023-12-14T03:13:39;10.38;;;3.58;;
82417;SDS011;72059;53.734;10.260;2023-12-14T03:16:06;10.32;;;3.10;;
82417;SDS011;72059;53.734;10.260;2023-12-14T03:18:34;11.05;;;3.33;;
82417;SDS011;72059;53.734;10.260;2023-12-14T03:21:01;8.20;;;3.33;;
82417;SDS011;72059;53.734;10.260;2023-12-14T03:23:29;11.08;;;3.40;;
82417;SDS011;72059;53.734;10.260;2023-12-14T03:25:56;7.62;;;3.05;;
82417;SDS011;72059;53.734;10.260;2023-12-14T03:28:24;13.85;;;4.47;;
82417;SDS011;72059;53.734;10.260;2023-12-14T03:30:51;12.93;;;4.40;;
82417;SDS011;72059;53.734;10.260;2023-12-14T03:33:19;15.43;;;3.62;;
82417;SDS011;72059;53.734;10.260;2023-12-14T03:35:47;6.28;;;2.80;;
82417;SDS011;72059;53.734;10.260;2023-12-14T03:38:15;7.00;;;2.83;;
82417;SDS011;72059;53.734;10.260;2023-12-14T03:40:42;5.00;;;2.52;;
82417;SDS011;72059;53.734;10.260;2023-12-14T03:43:10;7.03;;;3.02;;
82417;SDS011;72059;53.734;10.260;2023-12-14T03:45:37;7.65;;;3.20;;
82417;SDS011;72059;53.734;10.260;2023-12-14T03:48:04;6.37;;;2.58;;
82417;SDS011;72059;53.734;10.260;2023-12-14T03:50:32;4.78;;;2.80;;
82417;SDS011;72059;53.734;10.260;2023-12-14T03:52:59;14.45;;;4.70;;
82417;SDS011;72059;53.734;10.260;2023-12-14T03:55:27;14.00;;;4.40;;
82417;SDS011;72059;53.734;10.260;2023-12-14T03:57:54;10.53;;;3.55;;
82417;SDS011;72059;53.734;10.260;2023-12-14T04:00:22;11.28;;;3.72;;
82417;SDS011;72059;53.734;10.260;2023-12-14T04:02:49;8.13;;;4.03;;
82417;SDS011;72059;53.734;10.260;2023-12-14T04:05:17;11.45;;;4.55;;
82417;SDS011;72059;53.734;10.260;2023-12-14T04:07:44;17.48;;;5.75;;
82417;SDS011;72059;53.734;10.260;2023-12-14T04:10:12;10.88;;;4.28;;
82417;SDS011;72059;53.734;10.260;2023-12-14T04:12:40;9.05;;;3.87;;
82417;SDS011;72059;53.734;10.260;2023-12-14T04:15:08;10.10;;;3.27;;
82417;SDS011;72059;53.734;10.260;2023-12-14T04:17:36;9.20;;;4.20;;
82417;SDS011;72059;53.734;10.260;2023-12-14T04:20:04;9.90;;;3.35;;
82417;SDS011;72059;53.734;10.260;2023-12-14T04:22:32;11.12;;;3.62;;
82417;SDS011;72059;53.734;10.260;2023-12-14T04:25:00;10.58;;;4.12;;
82417;SDS011;72059;53.734;10.260;2023-12-14T04:27:27;5.60;;;4.05;;
82417;SDS011;72059;53.734;10.260;2023-12-14T04:29:55;8.30;;;4.22;;
82417;SDS011;72059;53.734;10.260;2023-12-14T04:32:22;17.57;;;4.78;;
82417;SDS011;72059;53.734;10.260;2023-12-14T04:34:50;12.00;;;4.55;;
82417;SDS011;72059;53.734;10.260;2023-12-14T04:37:17;9.15;;;3.60;;
82417;SDS011;72059;53.734;10.260;2023-12-14T04:39:45;15.43;;;5.37;;
82417;SDS011;72059;53.734;10.260;2023-12-14T04:42:12;12.85;;;5.95;;
82417;SDS011;72059;53.734;10.260;2023-12-14T04:44:40;15.10;;;5.00;;
82417;SDS011;72059;53.734;10.260;2023-12-14T04:47:07;15.10;;;5.35;;
82417;SDS011;72059;53.734;10.260;2023-12-14T04:49:35;11.70;;;4.92;;
82417;SDS011;72059;53.734;10.260;2023-12-14T04:52:02;7.90;;;4.12;;
82417;SDS011;72059;53.734;10.260;2023-12-14T04:54:30;8.30;;;4.15;;
82417;SDS011;72059;53.734;10.260;2023-12-14T04:56:58;14.90;;;4.67;;
82417;SDS011;72059;53.734;10.260;2023-12-14T04:59:25;10.43;;;4.50;;
82417;SDS011;72059;53.734;10.260;2023-12-14T05:01:53;10.38;;;4.10;;
82417;SDS011;72059;53.734;10.260;2023-12-14T05:04:20;11.63;;;4.35;;
82417;SDS011;72059;53.734;10.260;2023-12-14T05:06:48;11.08;;;4.05;;
82417;SDS011;72059;53.734;10.260;2023-12-14T05:09:15;7.40;;;3.70;;
82417;SDS011;72059;53.734;10.260;2023-12-14T05:11:42;9.20;;;4.60;;
82417;SDS011;72059;53.734;10.260;2023-12-14T05:14:10;11.15;;;3.80;;
82417;SDS011;72059;53.734;10.260;2023-12-14T05:16:37;9.13;;;3.55;;
82417;SDS011;72059;53.734;10.260;2023-12-14T05:19:05;7.92;;;4.03;;
82417;SDS011;72059;53.734;10.260;2023-12-14T05:21:32;10.10;;;3.65;;
82417;SDS011;72059;53.734;10.260;2023-12-14T05:23:59;25.35;;;7.28;;
82417;SDS011;72059;53.734;10.260;2023-12-14T05:26:28;14.35;;;6.62;;
82417;SDS011;72059;53.734;10.260;2023-12-14T05:28:55;19.25;;;6.42;;
82417;SDS011;72059;53.734;10.260;2023-12-14T05:31:23;21.15;;;7.20;;
82417;SDS011;72059;53.734;10.260;2023-12-14T05:33:50;14.43;;;5.50;;
82417;SDS011;72059;53.734;10.260;2023-12-14T05:36:18;12.28;;;5.28;;
82417;SDS011;72059;53.734;10.260;2023-12-14T05:38:45;12.23;;;5.70;;
82417;SDS011;72059;53.734;10.260;2023-12-14T05:41:13;14.70;;;5.53;;
82417;SDS011;72059;53.734;10.260;2023-12-14T05:43:41;18.52;;;5.50;;
82417;SDS011;72059;53.734;10.260;2023-12-14T05:46:08;17.37;;;7.33;;
82417;SDS011;72059;53.734;10.260;2023-12-14T05:48:37;32.28;;;7.65;;
82417;SDS011;72059;53.734;10.260;2023-12-14T05:51:04;21.80;;;7.05;;
82417;SDS011;72059;53.734;10.260;2023-12-14T05:53:32;13.43;;;5.62;;
82417;SDS011;72059;53.734;10.260;2023-12-14T05:56:01;20.85;;;6.37;;
82417;SDS011;72059;53.734;10.260;2023-12-14T05:58:28;20.15;;;6.45;;
82417;SDS011;72059;53.734;10.260;2023-12-14T06:00:55;27.32;;;7.92;;
82417;SDS011;72059;53.734;10.260;2023-12-14T06:03:23;29.35;;;8.53;;
82417;SDS011;72059;53.734;10.260;2023-12-14T06:05:50;23.60;;;7.67;;
82417;SDS011;72059;53.734;10.260;2023-12-14T06:08:18;19.87;;;6.55;;
82417;SDS011;72059;53.734;10.260;2023-12-14T06:10:45;22.35;;;7.83;;
82417;SDS011;72059;53.734;10.260;2023-12-14T06:13:13;19.52;;;7.17;;
82417;SDS011;72059;53.734;10.260;2023-12-14T06:15:40;17.02;;;6.40;;
82417;SDS011;72059;53.734;10.260;2023-12-14T06:18:07;22.05;;;7.50;;
82417;SDS011;72059;53.734;10.260;2023-12-14T06:20:35;22.70;;;6.72;;
82417;SDS011;72059;53.734;10.260;2023-12-14T06:23:02;16.85;;;6.08;;
82417;SDS011;72059;53.734;10.260;2023-12-14T06:25:30;21.25;;;7.47;;
82417;SDS011;72059;53.734;10.260;2023-12-14T06:27:57;21.15;;;7.20;;
82417;SDS011;72059;53.734;10.260;2023-12-14T06:30:25;21.50;;;6.75;;
82417;SDS011;72059;53.734;10.260;2023-12-14T06:32:52;17.65;;;6.03;;
82417;SDS011;72059;53.734;10.260;2023-12-14T06:35:19;12.35;;;5.22;;
82417;SDS011;72059;53.734;10.260;2023-12-14T06:37:47;18.45;;;5.53;;
82417;SDS011;72059;53.734;10.260;2023-12-14T06:40:15;14.38;;;5.53;;
82417;SDS011;72059;53.734;10.260;2023-12-14T06:42:42;14.53;;;5.30;;
82417;SDS011;72059;53.734;10.260;2023-12-14T06:45:10;13.85;;;5.05;;
82417;SDS011;72059;53.734;10.260;2023-12-14T06:47:37;14.83;;;4.80;;
82417;SDS011;72059;53.734;10.260;2023-12-14T06:50:06;11.12;;;4.42;;
82417;SDS011;72059;53.734;10.260;2023-12-14T06:52:34;12.90;;;4.92;;
82417;SDS011;72059;53.734;10.260;2023-12-14T06:55:01;14.90;;;5.15;;
82417;SDS011;72059;53.734;10.260;2023-12-14T06:57:29;20.15;;;6.42;;
82417;SDS011;72059;53.734;10.260;2023-12-14T06:59:56;14.78;;;6.33;;
82417;SDS011;72059;53.734;10.260;2023-12-14T07:02:23;20.90;;;6.25;;
82417;SDS011;72059;53.734;10.260;2023-12-14T07:04:51;18.10;;;5.83;;
82417;SDS011;72059;53.734;10.260;2023-12-14T07:07:18;10.28;;;4.67;;
82417;SDS011;72059;53.734;10.260;2023-12-14T07:09:46;13.65;;;5.67;;
82417;SDS011;72059;53.734;10.260;2023-12-14T07:12:14;19.70;;;5.40;;
82417;SDS011;72059;53.734;10.260;2023-12-14T07:14:41;24.05;;;6.33;;
82417;SDS011;72059;53.734;10.260;2023-12-14T07:17:08;17.27;;;6.35;;
82417;SDS011;72059;53.734;10.260;2023-12-14T07:19:36;19.25;;;6.67;;
82417;SDS011;72059;53.734;10.260;2023-12-14T07:22:03;16.02;;;6.65;;
82417;SDS011;72059;53.734;10.260;2023-12-14T07:24:31;10.95;;;5.97;;
82417;SDS011;72059;53.734;10.260;2023-12-14T07:26:59;17.40;;;7.12;;
82417;SDS011;72059;53.734;10.260;2023-12-14T07:29:26;21.30;;;8.33;;
82417;SDS011;72059;53.734;10.260;2023-12-14T07:31:54;17.80;;;7.60;;
82417;SDS011;72059;53.734;10.260;2023-12-14T07:34:21;23.80;;;8.10;;
82417;SDS011;72059;53.734;10.260;2023-12-14T07:36:50;18.32;;;7.05;;
82417;SDS011;72059;53.734;10.260;2023-12-14T07:39:17;17.70;;;6.87;;
82417;SDS011;72059;53.734;10.260;2023-12-14T07:41:45;16.55;;;5.62;;
82417;SDS011;72059;53.734;10.260;2023-12-14T07:44:12;21.30;;;6.75;;
82417;SDS011;72059;53.734;10.260;2023-12-14T07:46:39;13.65;;;5.50;;
82417;SDS011;72059;53.734;10.260;2023-12-14T07:49:08;20.72;;;6.05;;
82417;SDS011;72059;53.734;10.260;2023-12-14T07:51:36;17.15;;;6.20;;
82417;SDS011;72059;53.734;10.260;2023-12-14T07:54:03;14.98;;;6.37;;
82417;SDS011;72059;53.734;10.260;2023-12-14T07:56:31;17.30;;;6.55;;
82417;SDS011;72059;53.734;10.260;2023-12-14T07:58:59;13.83;;;6.25;;
82417;SDS011;72059;53.734;10.260;2023-12-14T08:01:26;21.27;;;6.78;;
82417;SDS011;72059;53.734;10.260;2023-12-14T08:03:53;15.13;;;5.65;;
82417;SDS011;72059;53.734;10.260;2023-12-14T08:06:21;16.17;;;6.70;;
82417;SDS011;72059;53.734;10.260;2023-12-14T08:08:48;18.07;;;5.70;;
82417;SDS011;72059;53.734;10.260;2023-12-14T08:11:16;12.60;;;6.50;;
82417;SDS011;72059;53.734;10.260;2023-12-14T08:13:43;15.08;;;6.55;;
82417;SDS011;72059;53.734;10.260;2023-12-14T08:16:11;16.70;;;6.42;;
82417;SDS011;72059;53.734;10.260;2023-12-14T08:18:38;17.32;;;6.97;;
82417;SDS011;72059;53.734;10.260;2023-12-14T08:21:07;22.17;;;8.00;;
82417;SDS011;72059;53.734;10.260;2023-12-14T08:23:34;25.00;;;7.85;;
82417;SDS011;72059;53.734;10.260;2023-12-14T08:26:02;22.15;;;7.95;;
82417;SDS011;72059;53.734;10.260;2023-12-14T08:28:29;15.40;;;6.17;;
82417;SDS011;72059;53.734;10.260;2023-12-14T08:30:57;24.40;;;7.50;;
82417;SDS011;72059;53.734;10.260;2023-12-14T08:33:26;20.75;;;8.53;;
82417;SDS011;72059;53.734;10.260;2023-12-14T08:35:53;22.02;;;7.90;;
82417;SDS011;72059;53.734;10.260;2023-12-14T08:38:21;17.92;;;6.87;;
82417;SDS011;72059;53.734;10.260;2023-12-14T08:40:49;20.60;;;6.90;;
82417;SDS011;72059;53.734;10.260;2023-12-14T08:43:16;18.07;;;6.42;;
82417;SDS011;72059;53.734;10.260;2023-12-14T08:45:44;20.40;;;6.75;;
82417;SDS011;72059;53.734;10.260;2023-12-14T08:48:13;17.82;;;6.45;;
82417;SDS011;72059;53.734;10.260;2023-12-14T08:50:40;14.73;;;6.72;;
82417;SDS011;72059;53.734;10.260;2023-12-14T08:53:07;27.22;;;8.08;;
82417;SDS011;72059;53.734;10.260;2023-12-14T08:55:35;22.82;;;8.78;;
82417;SDS011;72059;53.734;10.260;2023-12-14T08:58:02;33.48;;;8.63;;
82417;SDS011;72059;53.734;10.260;2023-12-14T09:00:30;23.20;;;8.88;;
82417;SDS011;72059;53.734;10.260;2023-12-14T09:02:57;21.15;;;8.53;;
82417;SDS011;72059;53.734;10.260;2023-12-14T09:05:24;29.12;;;9.08;;
82417;SDS011;72059;53.734;10.260;2023-12-14T09:07:52;34.35;;;8.75;;
82417;SDS011;72059;53.734;10.260;2023-12-14T09:10:22;33.20;;;9.23;;
82417;SDS011;72059;53.734;10.260;2023-12-14T09:12:49;21.17;;;9.30;;
82417;SDS011;72059;53.734;10.260;2023-12-14T09:15:16;23.62;;;9.35;;
82417;SDS011;72059;53.734;10.260;2023-12-14T09:17:44;18.82;;;9.13;;
82417;SDS011;72059;53.734;10.260;2023-12-14T09:20:12;30.08;;;9.53;;
82417;SDS011;72059;53.734;10.260;2023-12-14T09:22:40;21.62;;;8.58;;
82417;SDS011;72059;53.734;10.260;2023-12-14T09:25:07;20.60;;;9.08;;
82417;SDS011;72059;53.734;10.260;2023-12-14T09:27:35;24.32;;;8.80;;
82417;SDS011;72059;53.734;10.260;2023-12-14T09:30:02;15.65;;;8.93;;
82417;SDS011;72059;53.734;10.260;2023-12-14T09:32:30;22.58;;;8.28;;
82417;SDS011;72059;53.734;10.260;2023-12-14T09:34:58;21.37;;;7.62;;
82417;SDS011;72059;53.734;10.260;2023-12-14T09:37:26;23.50;;;9.30;;
82417;SDS011;72059;53.734;10.260;2023-12-14T09:39:53;19.90;;;8.15;;
82417;SDS011;72059;53.734;10.260;2023-12-14T09:42:21;23.98;;;8.88;;
82417;SDS011;72059;53.734;10.260;2023-12-14T09:44:49;20.72;;;7.28;;
82417;SDS011;72059;53.734;10.260;2023-12-14T09:47:17;16.60;;;7.92;;
82417;SDS011;72059;53.734;10.260;2023-12-14T09:49:44;22.87;;;7.70;;
82417;SDS011;72059;53.734;10.260;2023-12-14T09:52:12;17.42;;;7.08;;
82417;SDS011;72059;53.734;10.260;2023-12-14T09:54:39;18.67;;;8.23;;
82417;SDS011;72059;53.734;10.260;2023-12-14T09:57:07;28.85;;;8.90;;
82417;SDS011;72059;53.734;10.260;2023-12-14T09:59:35;16.07;;;7.85;;
82417;SDS011;72059;53.734;10.260;2023-12-14T10:02:13;20.37;;;8.10;;
82417;SDS011;72059;53.734;10.260;2023-12-14T10:04:36;22.22;;;8.83;;
82417;SDS011;72059;53.734;10.260;2023-12-14T10:07:04;29.70;;;9.35;;
82417;SDS011;72059;53.734;10.260;2023-12-14T10:09:33;19.48;;;8.23;;
82417;SDS011;72059;53.734;10.260;2023-12-14T10:12:03;25.08;;;9.78;;
82417;SDS011;72059;53.734;10.260;2023-12-14T10:14:33;20.65;;;9.48;;
82417;SDS011;72059;53.734;10.260;2023-12-14T10:17:14;25.25;;;9.23;;
82417;SDS011;72059;53.734;10.260;2023-12-14T10:19:47;19.77;;;8.15;;
82417;SDS011;72059;53.734;10.260;2023-12-14T10:22:15;20.12;;;9.85;;
82417;SDS011;72059;53.734;10.260;2023-12-14T10:24:44;19.77;;;9.80;;
82417;SDS011;72059;53.734;10.260;2023-12-14T10:27:18;18.25;;;8.30;;
82417;SDS011;72059;53.734;10.260;2023-12-14T10:29:42;18.02;;;8.28;;
82417;SDS011;72059;53.734;10.260;2023-12-14T10:32:11;26.25;;;10.30;;
82417;SDS011;72059;53.734;10.260;2023-12-14T10:34:39;27.22;;;9.20;;
82417;SDS011;72059;53.734;10.260;2023-12-14T10:37:07;23.20;;;9.15;;
82417;SDS011;72059;53.734;10.260;2023-12-14T10:39:36;13.05;;;8.95;;
82417;SDS011;72059;53.734;10.260;2023-12-14T10:42:06;21.97;;;9.78;;
82417;SDS011;72059;53.734;10.260;2023-12-14T10:44:35;28.47;;;9.30;;
82417;SDS011;72059;53.734;10.260;2023-12-14T10:47:03;19.55;;;8.53;;
82417;SDS011;72059;53.734;10.260;2023-12-14T10:49:33;22.52;;;8.10;;
82417;SDS011;72059;53.734;10.260;2023-12-14T10:52:02;18.07;;;7.78;;
82417;SDS011;72059;53.734;10.260;2023-12-14T10:54:31;19.20;;;8.50;;
82417;SDS011;72059;53.734;10.260;2023-12-14T10:57:01;18.75;;;8.50;;
82417;SDS011;72059;53.734;10.260;2023-12-14T10:59:30;15.65;;;8.43;;
82417;SDS011;72059;53.734;10.260;2023-12-14T11:01:58;23.27;;;8.08;;
82417;SDS011;72059;53.734;10.260;2023-12-14T11:04:27;23.57;;;8.90;;
82417;SDS011;72059;53.734;10.260;2023-12-14T11:06:55;23.83;;;7.80;;
82417;SDS011;72059;53.734;10.260;2023-12-14T11:09:23;17.55;;;8.58;;
82417;SDS011;72059;53.734;10.260;2023-12-14T11:14:23;31.80;;;9.67;;
82417;SDS011;72059;53.734;10.260;2023-12-14T11:16:54;21.07;;;9.43;;
82417;SDS011;72059;53.734;10.260;2023-12-14T11:24:34;22.20;;;7.53;;
82417;SDS011;72059;53.734;10.260;2023-12-14T11:27:08;15.68;;;7.87;;
82417;SDS011;72059;53.734;10.260;2023-12-14T11:29:36;29.70;;;14.07;;
82417;SDS011;72059;53.734;10.260;2023-12-14T11:32:05;25.77;;;12.23;;
82417;SDS011;72059;53.734;10.260;2023-12-14T11:34:33;24.43;;;10.00;;
82417;SDS011;72059;53.734;10.260;2023-12-14T11:37:00;31.77;;;10.23;;
82417;SDS011;72059;53.734;10.260;2023-12-14T11:39:31;29.00;;;9.90;;
82417;SDS011;72059;53.734;10.260;2023-12-14T11:42:01;18.17;;;9.18;;
82417;SDS011;72059;53.734;10.260;2023-12-14T11:46:56;22.10;;;8.25;;
82417;SDS011;72059;53.734;10.260;2023-12-14T11:49:25;16.95;;;9.85;;
82417;SDS011;72059;53.734;10.260;2023-12-14T11:51:54;20.20;;;9.88;;
82417;SDS011;72059;53.734;10.260;2023-12-14T11:54:22;18.90;;;9.05;;
82417;SDS011;72059;53.734;10.260;2023-12-14T11:56:50;26.00;;;9.38;;
82417;SDS011;72059;53.734;10.260;2023-12-14T11:59:17;26.10;;;9.10;;
82417;SDS011;72059;53.734;10.260;2023-12-14T12:01:58;17.50;;;8.68;;
82417;SDS011;72059;53.734;10.260;2023-12-14T12:04:27;18.42;;;9.18;;
82417;SDS011;72059;53.734;10.260;2023-12-14T12:07:05;18.87;;;8.95;;
82417;SDS011;72059;53.734;10.260;2023-12-14T12:09:34;20.52;;;7.37;;
82417;SDS011;72059;53.734;10.260;2023-12-14T12:12:12;25.00;;;8.15;;
82417;SDS011;72059;53.734;10.260;2023-12-14T12:14:36;15.28;;;7.33;;
82417;SDS011;72059;53.734;10.260;2023-12-14T12:17:05;21.42;;;9.78;;
82417;SDS011;72059;53.734;10.260;2023-12-14T12:19:38;18.82;;;8.05;;
82417;SDS011;72059;53.734;10.260;2023-12-14T12:22:03;14.10;;;7.28;;
82417;SDS011;72059;53.734;10.260;2023-12-14T12:24:31;24.67;;;7.60;;
82417;SDS011;72059;53.734;10.260;2023-12-14T12:26:58;21.77;;;8.28;;
82417;SDS011;72059;53.734;10.260;2023-12-14T12:29:25;16.27;;;7.33;;
82417;SDS011;72059;53.734;10.260;2023-12-14T12:31:53;14.07;;;8.03;;
82417;SDS011;72059;53.734;10.260;2023-12-14T12:34:21;18.80;;;7.75;;
82417;SDS011;72059;53.734;10.260;2023-12-14T12:36:48;18.85;;;7.10;;
82417;SDS011;72059;53.734;10.260;2023-12-14T12:39:16;18.60;;;7.42;;
82417;SDS011;72059;53.734;10.260;2023-12-14T12:41:43;13.28;;;6.20;;
82417;SDS011;72059;53.734;10.260;2023-12-14T12:44:11;13.18;;;6.80;;
82417;SDS011;72059;53.734;10.260;2023-12-14T12:46:38;16.87;;;6.50;;
82417;SDS011;72059;53.734;10.260;2023-12-14T12:49:06;21.57;;;7.87;;
82417;SDS011;72059;53.734;10.260;2023-12-14T12:51:33;16.20;;;7.70;;
82417;SDS011;72059;53.734;10.260;2023-12-14T12:54:01;15.13;;;7.05;;
82417;SDS011;72059;53.734;10.260;2023-12-14T12:56:29;16.77;;;8.38;;
82417;SDS011;72059;53.734;10.260;2023-12-14T12:58:57;14.18;;;6.10;;
82417;SDS011;72059;53.734;10.260;2023-12-14T13:01:24;15.28;;;6.60;;
82417;SDS011;72059;53.734;10.260;2023-12-14T13:03:55;15.93;;;7.60;;
82417;SDS011;72059;53.734;10.260;2023-12-14T13:08:53;20.70;;;6.55;;
82417;SDS011;72059;53.734;10.260;2023-12-14T13:11:21;12.25;;;7.62;;
82417;SDS011;72059;53.734;10.260;2023-12-14T13:13:48;12.47;;;7.15;;
82417;SDS011;72059;53.734;10.260;2023-12-14T13:16:16;18.55;;;7.75;;
82417;SDS011;72059;53.734;10.260;2023-12-14T13:18:43;20.27;;;7.30;;
82417;SDS011;72059;53.734;10.260;2023-12-14T13:21:11;14.20;;;6.30;;
82417;SDS011;72059;53.734;10.260;2023-12-14T13:23:39;21.97;;;7.40;;
82417;SDS011;72059;53.734;10.260;2023-12-14T13:26:06;20.30;;;7.17;;
82417;SDS011;72059;53.734;10.260;2023-12-14T13:28:34;16.37;;;6.60;;
82417;SDS011;72059;53.734;10.260;2023-12-14T13:31:01;10.13;;;6.30;;
82417;SDS011;72059;53.734;10.260;2023-12-14T13:33:29;14.83;;;5.97;;
82417;SDS011;72059;53.734;10.260;2023-12-14T13:35:56;12.78;;;5.37;;
82417;SDS011;72059;53.734;10.260;2023-12-14T13:38:24;8.63;;;5.00;;
82417;SDS011;72059;53.734;10.260;2023-12-14T13:40:51;9.43;;;4.33;;
82417;SDS011;72059;53.734;10.260;2023-12-14T13:43:19;9.23;;;4.75;;
82417;SDS011;72059;53.734;10.260;2023-12-14T13:45:47;11.43;;;5.42;;
82417;SDS011;72059;53.734;10.260;2023-12-14T13:48:16;16.15;;;5.20;;
82417;SDS011;72059;53.734;10.260;2023-12-14T13:50:43;7.90;;;4.30;;
82417;SDS011;72059;53.734;10.260;2023-12-14T13:53:11;7.97;;;5.80;;
82417;SDS011;72059;53.734;10.260;2023-12-14T13:55:38;9.60;;;5.62;;
82417;SDS011;72059;53.734;10.260;2023-12-14T13:58:06;7.53;;;5.03;;
82417;SDS011;72059;53.734;10.260;2023-12-14T14:00:33;8.43;;;5.08;;
82417;SDS011;72059;53.734;10.260;2023-12-14T14:03:02;7.90;;;5.65;;
82417;SDS011;72059;53.734;10.260;2023-12-14T14:05:30;9.70;;;5.92;;
82417;SDS011;72059;53.734;10.260;2023-12-14T14:07:58;8.95;;;5.65;;
82417;SDS011;72059;53.734;10.260;2023-12-14T14:10:26;6.78;;;5.45;;
82417;SDS011;72059;53.734;10.260;2023-12-14T14:12:53;7.15;;;4.90;;
82417;SDS011;72059;53.734;10.260;2023-12-14T14:15:21;10.38;;;5.85;;
82417;SDS011;72059;53.734;10.260;2023-12-14T14:17:49;12.20;;;4.92;;
82417;SDS011;72059;53.734;10.260;2023-12-14T14:20:17;6.90;;;4.58;;
82417;SDS011;72059;53.734;10.260;2023-12-14T14:22:45;8.85;;;4.95;;
82417;SDS011;72059;53.734;10.260;2023-12-14T14:25:12;7.15;;;4.72;;
82417;SDS011;72059;53.734;10.260;2023-12-14T14:27:40;12.20;;;6.37;;
82417;SDS011;72059;53.734;10.260;2023-12-14T14:30:08;14.10;;;7.55;;
82417;SDS011;72059;53.734;10.260;2023-12-14T14:32:35;11.00;;;6.83;;
82417;SDS011;72059;53.734;10.260;2023-12-14T14:35:04;14.95;;;7.15;;
82417;SDS011;72059;53.734;10.260;2023-12-14T14:37:32;11.28;;;6.28;;
82417;SDS011;72059;53.734;10.260;2023-12-14T14:40:00;7.42;;;5.17;;
82417;SDS011;72059;53.734;10.260;2023-12-14T14:42:28;5.75;;;5.15;;